createdAt,value
2019-02-15T00:00:10.842Z,14.50
2019-02-15T00:02:39.242Z,13.50
2019-02-15T00:05:07.734Z,14.20
2019-02-15T00:07:36.141Z,18.05
2019-02-15T00:10:05.530Z,21.45
2019-02-15T00:12:34.274Z,15.15
2019-02-15T00:15:02.689Z,15.98
2019-02-15T00:17:35.973Z,15.18
2019-02-15T00:20:10.472Z,18.15
2019-02-15T00:22:38.897Z,15.32
2019-02-15T00:25:07.344Z,18.80
2019-02-15T00:27:35.749Z,17.67
2019-02-15T00:30:08.654Z,17.48
2019-02-15T00:32:37.056Z,15.83
2019-02-15T00:35:05.645Z,15.65
2019-02-15T00:37:34.046Z,23.12
2019-02-15T00:40:02.525Z,14.68
2019-02-15T00:42:30.939Z,17.70
2019-02-15T00:44:59.398Z,15.85
2019-02-15T00:47:41.103Z,17.57
2019-02-15T00:50:26.545Z,13.53
2019-02-15T00:53:14.443Z,18.57
2019-02-15T00:56:00.981Z,15.50
2019-02-15T00:58:33.474Z,19.42
2019-02-15T01:01:20.207Z,16.65
2019-02-15T01:03:56.233Z,18.45
2019-02-15T01:06:32.253Z,19.77
2019-02-15T01:09:08.254Z,18.50
2019-02-15T01:11:38.307Z,16.85
2019-02-15T01:14:06.715Z,18.48
2019-02-15T01:16:35.198Z,16.45
2019-02-15T01:19:03.733Z,19.52
2019-02-15T01:21:32.161Z,15.05
2019-02-15T01:24:00.562Z,17.75
2019-02-15T01:26:33.581Z,19.52
2019-02-15T01:29:09.329Z,20.12
2019-02-15T01:31:42.325Z,17.82
2019-02-15T01:34:15.091Z,20.43
2019-02-15T01:36:47.970Z,16.82
2019-02-15T01:39:20.961Z,20.82
2019-02-15T01:41:59.701Z,15.25
2019-02-15T01:44:29.743Z,21.60
2019-02-15T01:46:59.790Z,17.25
2019-02-15T01:49:28.198Z,16.60
2019-02-15T01:51:56.599Z,16.85
2019-02-15T01:54:24.994Z,15.88
2019-02-15T01:56:53.427Z,17.95
2019-02-15T01:59:21.854Z,19.17
2019-02-15T02:01:50.279Z,16.93
2019-02-15T02:04:18.714Z,17.10
2019-02-15T02:06:47.145Z,15.78
2019-02-15T02:09:15.629Z,20.50
2019-02-15T02:11:44.082Z,17.25
2019-02-15T02:14:12.566Z,18.95
2019-02-15T02:16:40.978Z,18.40
2019-02-15T02:19:09.397Z,14.18
2019-02-15T02:21:37.808Z,15.30
2019-02-15T02:24:06.257Z,17.62
2019-02-15T02:26:34.662Z,15.45
2019-02-15T02:29:03.109Z,14.38
2019-02-15T02:31:32.089Z,15.88
2019-02-15T02:34:00.537Z,16.12
2019-02-15T02:36:49.731Z,13.75
2019-02-15T02:39:18.135Z,12.65
2019-02-15T02:41:46.565Z,16.32
2019-02-15T02:44:15.007Z,17.02
2019-02-15T02:46:43.431Z,17.92
2019-02-15T02:49:11.860Z,17.23
2019-02-15T02:51:40.271Z,16.10
2019-02-15T02:54:08.690Z,19.02
2019-02-15T02:56:37.101Z,15.28
2019-02-15T02:59:05.530Z,14.30
2019-02-15T03:01:33.924Z,16.82
2019-02-15T03:04:02.814Z,15.50
2019-02-15T03:06:31.221Z,12.60
2019-02-15T03:08:59.631Z,15.13
2019-02-15T03:11:28.051Z,14.38
2019-02-15T03:13:56.456Z,13.13
2019-02-15T03:16:24.862Z,13.43
2019-02-15T03:18:53.545Z,17.65
2019-02-15T03:21:21.959Z,18.23
2019-02-15T03:23:50.383Z,17.17
2019-02-15T03:26:18.782Z,14.35
2019-02-15T03:28:47.574Z,16.93
2019-02-15T03:31:16.042Z,14.20
2019-02-15T03:33:44.910Z,14.00
2019-02-15T03:36:14.977Z,15.68
2019-02-15T03:38:47.788Z,15.88
2019-02-15T03:41:17.829Z,13.18
2019-02-15T03:43:46.359Z,16.45
2019-02-15T03:46:14.741Z,16.50
2019-02-15T03:48:43.185Z,15.70
2019-02-15T03:51:11.902Z,15.28
2019-02-15T03:53:40.319Z,15.58
2019-02-15T03:56:08.725Z,14.07
2019-02-15T03:58:37.141Z,14.53
2019-02-15T04:01:05.558Z,16.30
2019-02-15T04:03:34.039Z,16.20
2019-02-15T04:06:02.447Z,17.45
2019-02-15T04:08:30.878Z,13.98
2019-02-15T04:10:59.290Z,12.23
2019-02-15T04:13:27.701Z,17.05
2019-02-15T04:15:56.438Z,15.60
2019-02-15T04:18:24.862Z,16.40
2019-02-15T04:20:53.683Z,15.50
2019-02-15T04:23:22.082Z,14.75
2019-02-15T04:25:50.583Z,14.18
2019-02-15T04:28:19.053Z,15.75
2019-02-15T04:30:47.470Z,14.03
2019-02-15T04:33:15.902Z,13.93
2019-02-15T04:35:44.307Z,15.72
2019-02-15T04:38:12.759Z,18.25
2019-02-15T04:40:41.208Z,15.30
2019-02-15T04:43:09.640Z,16.10
2019-02-15T04:45:38.100Z,15.78
2019-02-15T04:48:06.526Z,14.55
2019-02-15T04:50:34.959Z,12.88
2019-02-15T04:53:03.368Z,16.48
2019-02-15T04:55:31.806Z,13.83
2019-02-15T04:58:00.205Z,14.95
2019-02-15T05:00:28.645Z,17.27
2019-02-15T05:02:57.048Z,12.58
2019-02-15T05:05:26.993Z,17.67
2019-02-15T05:07:55.479Z,14.58
2019-02-15T05:10:23.991Z,21.50
2019-02-15T05:12:52.783Z,12.78
2019-02-15T05:15:21.200Z,15.38
2019-02-15T05:17:49.605Z,13.48
2019-02-15T05:20:18.061Z,15.48
2019-02-15T05:22:46.479Z,19.80
2019-02-15T05:25:14.901Z,20.77
2019-02-15T05:27:43.314Z,12.80
2019-02-15T05:30:11.728Z,13.43
2019-02-15T05:32:40.137Z,12.78
2019-02-15T05:35:08.553Z,23.20
2019-02-15T05:37:36.996Z,15.55
2019-02-15T05:40:06.517Z,20.02
2019-02-15T05:42:34.953Z,15.05
2019-02-15T05:45:04.578Z,12.78
2019-02-15T05:47:33.298Z,13.18
2019-02-15T05:50:01.741Z,21.50
2019-02-15T05:52:30.158Z,15.75
2019-02-15T05:54:58.593Z,18.77
2019-02-15T05:57:27.019Z,14.45
2019-02-15T05:59:55.417Z,20.15
2019-02-15T06:02:23.864Z,15.70
2019-02-15T06:04:52.265Z,12.75
2019-02-15T06:07:20.809Z,15.88
2019-02-15T06:09:49.257Z,14.47
2019-02-15T06:12:17.683Z,17.02
2019-02-15T06:14:46.090Z,15.88
2019-02-15T06:17:14.525Z,15.05
2019-02-15T06:19:42.955Z,17.95
2019-02-15T06:22:11.371Z,15.18
2019-02-15T06:24:39.851Z,19.42
2019-02-15T06:27:08.295Z,14.18
2019-02-15T06:29:36.725Z,13.75
2019-02-15T06:32:05.137Z,22.42
2019-02-15T06:34:33.893Z,18.00
2019-02-15T06:37:02.358Z,21.27
2019-02-15T06:39:30.757Z,19.80
2019-02-15T06:41:59.208Z,24.32
2019-02-15T06:44:27.617Z,27.15
2019-02-15T06:46:56.062Z,44.15
2019-02-15T06:49:24.462Z,24.87
2019-02-15T06:51:52.939Z,25.23
2019-02-15T06:54:21.360Z,26.50
2019-02-15T06:56:49.769Z,28.23
2019-02-15T06:59:38.110Z,18.90
2019-02-15T07:02:20.219Z,15.93
2019-02-15T07:05:05.366Z,18.17
2019-02-15T07:07:33.788Z,17.55
2019-02-15T07:10:02.189Z,16.93
2019-02-15T07:12:30.594Z,17.62
2019-02-15T07:14:59.265Z,21.80
2019-02-15T07:17:27.685Z,20.25
2019-02-15T07:19:56.109Z,19.80
2019-02-15T07:22:24.514Z,22.55
2019-02-15T07:24:52.953Z,13.25
2019-02-15T07:27:21.386Z,19.60
2019-02-15T07:29:49.834Z,13.98
2019-02-15T07:32:18.257Z,21.90
2019-02-15T07:34:46.691Z,13.08
2019-02-15T07:37:15.101Z,17.45
2019-02-15T07:39:43.549Z,15.63
2019-02-15T07:42:11.968Z,14.58
2019-02-15T07:44:40.368Z,16.52
2019-02-15T07:47:08.793Z,17.05
2019-02-15T07:49:37.203Z,13.58
2019-02-15T07:52:05.609Z,13.83
2019-02-15T07:54:34.047Z,16.85
2019-02-15T07:57:02.521Z,18.05
2019-02-15T07:59:30.916Z,12.35
2019-02-15T08:02:01.829Z,20.75
2019-02-15T08:04:29.461Z,14.38
2019-02-15T08:06:57.865Z,13.78
2019-02-15T08:09:26.276Z,14.83
2019-02-15T08:11:55.022Z,13.48
2019-02-15T08:14:23.460Z,20.43
2019-02-15T08:16:51.870Z,14.28
2019-02-15T08:19:21.230Z,16.25
2019-02-15T08:21:49.961Z,12.50
2019-02-15T08:24:18.382Z,16.05
2019-02-15T08:26:46.801Z,12.88
2019-02-15T08:29:15.246Z,12.73
2019-02-15T08:31:43.711Z,12.73
2019-02-15T08:34:12.145Z,14.10
2019-02-15T08:36:41.924Z,16.23
2019-02-15T08:39:10.402Z,14.73
2019-02-15T08:41:38.816Z,18.67
2019-02-15T08:44:07.279Z,12.13
2019-02-15T08:46:35.799Z,19.07
2019-02-15T08:49:04.245Z,13.62
2019-02-15T08:51:33.064Z,15.50
2019-02-15T08:54:01.546Z,12.65
2019-02-15T08:56:29.974Z,11.45
2019-02-15T08:58:58.479Z,16.50
2019-02-15T09:01:26.907Z,14.38
2019-02-15T09:03:55.386Z,11.25
2019-02-15T09:06:23.839Z,18.67
2019-02-15T09:08:52.522Z,11.50
2019-02-15T09:11:20.924Z,9.48
2019-02-15T09:13:49.341Z,13.68
2019-02-15T09:16:17.746Z,12.58
2019-02-15T09:18:46.193Z,13.58
2019-02-15T09:21:14.590Z,9.20
2019-02-15T09:23:43.043Z,11.15
2019-02-15T09:26:18.023Z,13.20
2019-02-15T09:28:52.798Z,11.35
2019-02-15T09:31:21.193Z,11.95
2019-02-15T09:33:49.629Z,12.25
2019-02-15T09:36:18.049Z,17.40
2019-02-15T09:38:46.464Z,15.05
2019-02-15T09:41:14.867Z,12.58
2019-02-15T09:43:43.287Z,16.90
2019-02-15T09:46:19.524Z,14.28
2019-02-15T09:48:41.853Z,12.68
2019-02-15T09:51:10.303Z,12.98
2019-02-15T09:53:38.717Z,12.20
2019-02-15T09:56:07.119Z,17.02
2019-02-15T09:58:35.805Z,11.57
2019-02-15T10:01:04.221Z,11.65
2019-02-15T10:03:32.620Z,12.23
2019-02-15T10:06:01.033Z,11.97
2019-02-15T10:08:29.441Z,12.90
2019-02-15T10:10:58.029Z,14.43
2019-02-15T10:13:26.488Z,12.55
2019-02-15T10:15:54.930Z,15.03
2019-02-15T10:18:23.353Z,11.50
2019-02-15T10:20:51.772Z,12.88
2019-02-15T10:23:20.203Z,15.30
2019-02-15T10:25:48.922Z,16.97
2019-02-15T10:28:17.358Z,14.20
2019-02-15T10:30:45.878Z,11.18
2019-02-15T10:33:14.661Z,11.80
2019-02-15T10:35:43.091Z,19.07
2019-02-15T10:38:11.504Z,14.18
2019-02-15T10:40:39.929Z,14.00
2019-02-15T10:43:08.351Z,11.53
2019-02-15T10:45:36.779Z,16.20
2019-02-15T10:48:05.262Z,11.03
2019-02-15T10:50:33.687Z,12.37
2019-02-15T10:53:02.137Z,11.90
2019-02-15T10:55:30.554Z,11.18
2019-02-15T10:57:59.276Z,10.95
2019-02-15T11:00:27.841Z,10.00
2019-02-15T11:02:56.246Z,11.03
2019-02-15T11:05:24.665Z,13.40
2019-02-15T11:07:53.168Z,10.23
2019-02-15T11:10:21.601Z,10.97
2019-02-15T11:12:50.017Z,11.50
2019-02-15T11:15:18.777Z,10.90
2019-02-15T11:17:47.212Z,11.40
2019-02-15T11:20:17.161Z,11.25
2019-02-15T11:22:45.634Z,10.82
2019-02-15T11:25:14.058Z,17.10
2019-02-15T11:27:42.486Z,9.25
2019-02-15T11:30:13.722Z,9.48
2019-02-15T11:32:42.433Z,10.65
2019-02-15T11:35:14.324Z,7.90
2019-02-15T11:37:42.827Z,8.00
2019-02-15T11:40:13.872Z,8.40
2019-02-15T11:42:42.352Z,8.18
2019-02-15T11:45:12.674Z,7.37
2019-02-15T11:47:41.626Z,10.43
2019-02-15T11:50:12.173Z,6.20
2019-02-15T11:52:40.621Z,8.05
2019-02-15T11:55:10.366Z,13.13
2019-02-15T11:57:38.797Z,6.05
2019-02-15T12:00:14.765Z,8.10
2019-02-15T12:02:43.399Z,10.65
2019-02-15T12:05:11.864Z,7.20
2019-02-15T12:07:40.277Z,7.20
2019-02-15T12:10:10.801Z,6.87
2019-02-15T12:12:39.245Z,10.88
2019-02-15T12:15:09.401Z,6.60
2019-02-15T12:17:37.925Z,5.13
2019-02-15T12:20:11.312Z,6.47
2019-02-15T12:22:39.728Z,5.90
2019-02-15T12:25:08.981Z,7.42
2019-02-15T12:27:37.400Z,6.90
2019-02-15T12:30:15.539Z,12.70
2019-02-15T12:32:43.973Z,10.00
2019-02-15T12:35:12.401Z,6.50
2019-02-15T12:37:40.867Z,6.97
2019-02-15T12:40:11.033Z,7.60
2019-02-15T12:42:39.449Z,20.20
2019-02-15T12:45:10.876Z,7.25
2019-02-15T12:47:39.303Z,195.28
2019-02-15T12:50:11.030Z,10.73
2019-02-15T12:52:39.428Z,8.00
2019-02-15T12:55:08.127Z,11.43
2019-02-15T12:57:36.550Z,10.63
2019-02-15T13:00:13.237Z,9.15
2019-02-15T13:02:41.650Z,6.28
2019-02-15T13:05:11.321Z,84.80
2019-02-15T13:07:39.765Z,5.43
2019-02-15T13:10:16.831Z,11.10
2019-02-15T13:12:45.269Z,5.50
2019-02-15T13:15:13.953Z,7.77
2019-02-15T13:17:42.531Z,7.50
2019-02-15T13:20:11.535Z,11.00
2019-02-15T13:22:40.015Z,88.37
2019-02-15T13:25:08.893Z,7.57
2019-02-15T13:27:37.393Z,7.03
2019-02-15T13:30:09.119Z,57.60
2019-02-15T13:32:37.560Z,696.70
2019-02-15T13:35:09.265Z,386.43
2019-02-15T13:37:37.712Z,392.93
2019-02-15T13:40:08.137Z,576.73
2019-02-15T13:42:36.558Z,120.97
2019-02-15T13:45:10.561Z,296.97
2019-02-15T13:47:38.992Z,24.23
2019-02-15T13:50:12.201Z,77.67
2019-02-15T13:52:40.625Z,287.17
2019-02-15T13:55:10.576Z,59.73
2019-02-15T13:57:39.077Z,92.57
2019-02-15T14:00:10.738Z,51.90
2019-02-15T14:02:39.151Z,120.73
2019-02-15T14:05:12.005Z,59.43
2019-02-15T14:07:40.425Z,29.20
2019-02-15T14:10:13.110Z,28.63
2019-02-15T14:12:41.525Z,11.63
2019-02-15T14:15:11.193Z,13.67
2019-02-15T14:17:45.292Z,8.57
2019-02-15T14:20:16.241Z,12.60
2019-02-15T14:22:44.654Z,9.20
2019-02-15T14:25:13.633Z,23.10
2019-02-15T14:27:42.110Z,15.60
2019-02-15T14:30:13.721Z,17.80
2019-02-15T14:32:42.200Z,49.10
2019-02-15T14:35:14.168Z,301.80
2019-02-15T14:37:43.417Z,23.60
2019-02-15T14:40:13.237Z,388.80
2019-02-15T14:42:41.685Z,362.40
2019-02-15T14:45:11.466Z,270.93
2019-02-15T14:47:39.946Z,540.30
2019-02-15T14:50:09.738Z,321.23
2019-02-15T14:52:38.225Z,461.57
2019-02-15T14:55:08.921Z,813.23
2019-02-15T14:57:37.383Z,338.60
2019-02-15T15:00:12.111Z,450.27
2019-02-15T15:02:40.760Z,817.03
2019-02-15T15:05:10.466Z,993.87
2019-02-15T15:07:38.888Z,534.40
2019-02-15T15:10:09.069Z,18.00
2019-02-15T15:12:37.481Z,865.07
2019-02-15T15:15:11.833Z,209.03
2019-02-15T15:17:40.269Z,505.80
2019-02-15T15:20:10.737Z,642.30
2019-02-15T15:22:39.155Z,888.17
2019-02-15T15:25:12.477Z,1025.10
2019-02-15T15:27:40.954Z,1077.00
2019-02-15T15:30:12.325Z,1055.73
2019-02-15T15:32:40.906Z,1016.50
2019-02-15T15:35:11.183Z,1119.63
2019-02-15T15:37:39.598Z,1045.90
2019-02-15T15:40:11.083Z,499.20
2019-02-15T15:42:39.530Z,1091.93
2019-02-15T15:45:10.203Z,1155.90
2019-02-15T15:47:38.668Z,887.93
2019-02-15T15:50:09.323Z,986.87
2019-02-15T15:52:37.765Z,5.13
2019-02-15T15:55:08.219Z,933.03
2019-02-15T15:57:36.638Z,1097.40
2019-02-15T16:00:07.809Z,942.03
2019-02-15T16:02:36.236Z,892.33
2019-02-15T16:05:05.925Z,839.83
2019-02-15T16:07:34.633Z,535.85
2019-02-15T16:10:03.774Z,993.43
2019-02-15T16:12:32.531Z,429.80
2019-02-15T16:15:01.089Z,974.92
2019-02-15T16:17:29.551Z,813.27
2019-02-15T16:19:58.346Z,512.23
2019-02-15T16:22:26.756Z,254.47
2019-02-15T16:24:55.181Z,57.08
2019-02-15T16:27:23.605Z,270.60
2019-02-15T16:29:52.018Z,34.45
2019-02-15T16:32:20.448Z,28.30
2019-02-15T16:34:48.877Z,17.80
2019-02-15T16:37:17.288Z,11.67
2019-02-15T16:39:45.726Z,12.23
2019-02-15T16:42:14.703Z,10.45
2019-02-15T16:44:43.294Z,5.67
2019-02-15T16:47:11.730Z,6.95
2019-02-15T16:49:40.146Z,9.68
2019-02-15T16:52:08.594Z,7.33
2019-02-15T16:54:36.996Z,5.95
2019-02-15T16:57:05.442Z,4.85
2019-02-15T16:59:33.900Z,8.98
2019-02-15T17:02:02.679Z,5.53
2019-02-15T17:04:31.113Z,9.20
2019-02-15T17:06:59.525Z,6.90
2019-02-15T17:09:27.961Z,10.10
2019-02-15T17:12:15.710Z,5.75
2019-02-15T17:14:44.128Z,5.83
2019-02-15T17:17:12.558Z,9.23
2019-02-15T17:19:40.957Z,6.85
2019-02-15T17:22:09.371Z,6.35
2019-02-15T17:24:37.769Z,8.98
2019-02-15T17:27:06.176Z,5.95
2019-02-15T17:29:34.635Z,9.55
2019-02-15T17:32:03.038Z,5.28
2019-02-15T17:34:31.484Z,6.75
2019-02-15T17:36:59.930Z,6.87
2019-02-15T17:39:28.341Z,9.25
2019-02-15T17:41:56.756Z,12.05
2019-02-15T17:44:25.156Z,8.00
2019-02-15T17:46:53.580Z,7.17
2019-02-15T17:49:21.986Z,8.65
2019-02-15T17:51:50.413Z,11.25
2019-02-15T17:54:18.853Z,8.70
2019-02-15T17:56:47.271Z,8.78
2019-02-15T17:59:15.697Z,10.93
2019-02-15T18:01:44.110Z,8.43
2019-02-15T18:04:12.541Z,11.18
2019-02-15T18:06:40.996Z,13.60
2019-02-15T18:09:09.434Z,11.80
2019-02-15T18:11:37.875Z,9.08
2019-02-15T18:14:06.278Z,9.50
2019-02-15T18:16:34.795Z,12.80
2019-02-15T18:19:09.844Z,9.08
2019-02-15T18:21:33.669Z,8.20
2019-02-15T18:24:02.370Z,13.43
2019-02-15T18:26:30.791Z,8.40
2019-02-15T18:28:59.230Z,9.10
2019-02-15T18:31:27.680Z,10.45
2019-02-15T18:33:56.154Z,9.35
2019-02-15T18:36:24.629Z,11.22
2019-02-15T18:38:53.039Z,9.75
2019-02-15T18:41:21.449Z,9.58
2019-02-15T18:43:49.880Z,10.30
2019-02-15T18:46:18.327Z,10.65
2019-02-15T18:48:46.756Z,10.88
2019-02-15T18:51:15.149Z,11.80
2019-02-15T18:53:43.575Z,11.00
2019-02-15T18:56:11.983Z,8.25
2019-02-15T18:58:40.402Z,10.50
2019-02-15T19:01:08.833Z,15.55
2019-02-15T19:03:37.253Z,11.63
2019-02-15T19:06:05.653Z,9.93
2019-02-15T19:08:34.123Z,11.50
2019-02-15T19:11:02.540Z,11.30
2019-02-15T19:13:30.950Z,14.35
2019-02-15T19:15:59.664Z,12.63
2019-02-15T19:18:28.107Z,11.28
2019-02-15T19:20:56.557Z,13.13
2019-02-15T19:23:24.981Z,13.03
2019-02-15T19:25:53.713Z,15.38
2019-02-15T19:28:22.125Z,14.80
2019-02-15T19:30:56.606Z,11.65
2019-02-15T19:33:25.045Z,10.80
2019-02-15T19:35:53.470Z,11.28
2019-02-15T19:38:21.891Z,13.58
2019-02-15T19:40:50.301Z,14.18
2019-02-15T19:43:18.728Z,12.95
2019-02-15T19:45:48.318Z,15.93
2019-02-15T19:48:16.824Z,15.53
2019-02-15T19:50:45.233Z,19.23
2019-02-15T19:53:13.653Z,14.20
2019-02-15T19:55:42.070Z,15.15
2019-02-15T19:58:10.486Z,13.68
2019-02-15T20:00:38.890Z,17.05
2019-02-15T20:03:07.305Z,19.07
2019-02-15T20:05:36.069Z,22.77
2019-02-15T20:08:04.490Z,27.30
2019-02-15T20:10:32.887Z,13.48
2019-02-15T20:13:01.310Z,13.95
2019-02-15T20:15:29.767Z,13.85
2019-02-15T20:17:58.169Z,13.40
2019-02-15T20:20:26.583Z,15.55
2019-02-15T20:22:54.989Z,14.28
2019-02-15T20:25:23.436Z,13.00
2019-02-15T20:27:51.917Z,13.28
2019-02-15T20:30:23.813Z,12.30
2019-02-15T20:32:52.262Z,13.78
2019-02-15T20:35:20.777Z,21.25
2019-02-15T20:37:49.203Z,12.33
2019-02-15T20:40:17.671Z,13.93
2019-02-15T20:42:46.077Z,17.85
2019-02-15T20:45:17.422Z,21.07
2019-02-15T20:47:45.902Z,20.68
2019-02-15T20:50:14.864Z,16.00
2019-02-15T20:52:43.598Z,13.28
2019-02-15T20:55:14.361Z,18.32
2019-02-15T20:57:42.840Z,14.47
2019-02-15T21:00:14.322Z,15.08
2019-02-15T21:02:43.046Z,15.80
2019-02-15T21:05:11.572Z,14.25
2019-02-15T21:07:40.019Z,15.58
2019-02-15T21:10:11.234Z,14.05
2019-02-15T21:12:39.858Z,15.93
2019-02-15T21:15:13.871Z,12.60
2019-02-15T21:17:42.341Z,16.37
2019-02-15T21:20:15.234Z,13.90
2019-02-15T21:22:43.665Z,17.85
2019-02-15T21:25:18.238Z,15.95
2019-02-15T21:27:46.659Z,16.97
2019-02-15T21:30:16.721Z,21.87
2019-02-15T21:32:45.200Z,20.60
2019-02-15T21:35:13.697Z,14.63
2019-02-15T21:37:42.118Z,16.07
2019-02-15T21:40:17.921Z,21.20
2019-02-15T21:42:46.327Z,14.98
2019-02-15T21:45:14.824Z,31.60
2019-02-15T21:47:43.254Z,24.90
2019-02-15T21:50:17.127Z,25.55
2019-02-15T21:52:44.313Z,24.37
2019-02-15T21:55:14.048Z,24.20
2019-02-15T21:57:42.441Z,26.07
2019-02-15T22:00:13.666Z,19.20
2019-02-15T22:02:42.086Z,20.37
2019-02-15T22:05:10.859Z,20.35
2019-02-15T22:07:39.276Z,17.95
2019-02-15T22:10:09.563Z,18.52
2019-02-15T22:12:38.355Z,15.30
2019-02-15T22:15:10.177Z,13.15
2019-02-15T22:17:38.595Z,13.88
2019-02-15T22:20:10.562Z,13.68
2019-02-15T22:22:38.989Z,19.42
2019-02-15T22:25:08.258Z,12.55
2019-02-15T22:27:36.663Z,19.37
2019-02-15T22:30:10.934Z,13.80
2019-02-15T22:32:39.343Z,13.30
2019-02-15T22:35:08.653Z,15.28
2019-02-15T22:37:56.992Z,18.62
2019-02-15T22:40:33.061Z,15.08
2019-02-15T22:43:13.489Z,12.20
2019-02-15T22:45:41.919Z,18.00
2019-02-15T22:48:10.419Z,16.73
2019-02-15T22:50:38.892Z,13.32
2019-02-15T22:53:07.332Z,15.13
2019-02-15T22:55:35.765Z,15.28
2019-02-15T22:58:04.710Z,12.63
2019-02-15T23:00:55.813Z,11.18
2019-02-15T23:03:28.065Z,13.43
2019-02-15T23:05:56.482Z,15.48
2019-02-15T23:08:24.985Z,15.48
2019-02-15T23:10:53.409Z,14.40
2019-02-15T23:13:21.841Z,16.37
2019-02-15T23:15:50.261Z,11.68
2019-02-15T23:18:19.171Z,9.70
2019-02-15T23:20:47.653Z,12.50
2019-02-15T23:23:16.330Z,14.43
2019-02-15T23:25:44.733Z,13.05
2019-02-15T23:28:13.152Z,14.68
2019-02-15T23:30:41.567Z,14.43
2019-02-15T23:33:10.006Z,14.78
2019-02-15T23:35:38.436Z,12.40
2019-02-15T23:38:06.874Z,13.50
2019-02-15T23:40:35.266Z,13.35
2019-02-15T23:43:03.952Z,18.90
2019-02-15T23:45:32.367Z,14.75
2019-02-15T23:48:00.777Z,13.28
2019-02-15T23:50:29.207Z,37.13
2019-02-15T23:52:57.690Z,42.62
2019-02-15T23:55:26.117Z,67.72
2019-02-15T23:57:54.582Z,74.30
